Aérodrome :
LOGIN :

S'inscrire | Disclaimer

   EN    FR    IT 

 










Légende :    VFR   VFR Marginal   IFR   IFR Intensif   IFR Très Intensif
Visi : 
Plafond : 
>= 8 km
>= 3000ft
5 à 8 km
1000 à 3000 ft
1500m à 5 km
500 à 1000 ft
800 à 1500m
200 à 500 ft
< 800m
< 200 ft
Symboles :   Orages  Brouillard  Fortes neiges  Fortes précipitations  Vent > 20 kt
SIGMETs :   Divers  Orages  Givrage  Turbulence  Onde Orograph.  Cendres Volcan.






- Altitude de l'aérodrome : 586 ft
- Code IATA : IEV


UKKK - Zhuliany

DERNIER METAR :
  • 151400Z 32006MPS 9000 BKN015 M10/M13 Q1009 R26/820345 TEMPO 1000 SHSN BKN004 SCT015CB

METARs EXPIRÉS :
  • 151330Z 31007MPS 290V350 8000 3700E -SHSN SCT020 BKN030CB M09/M14 Q1009 R26/820345 TEMPO 1000 SHSN BKN004 SCT015CB
  • 151300Z 30006MPS 9000 -SHSN SCT018 BKN027CB M09/M13 Q1009 R26/820345 TEMPO 1000 SHSN BKN004 SCT015CB
  • 151242Z 31004MPS 290V350 9000 -SHSN SCT018 BKN027CB M09/M13 Q1008 R26/820345 TEMPO 1000 SHSN BKN004 SCT015CB
  • 151230Z 30005MPS 280V340 7000 1700E SHSN SCT009 BKN027CB M09/M13 Q1008 R26/820345 TEMPO 1000 SHSN BKN004 SCT015CB
  • 151200Z 31004MPS 260V350 9999 BKN016 M10/M14 Q1008 R26/820345 TEMPO 2000 SHSN SCT015CB
  • 151130Z 33003MPS 300V360 9000 OVC024 M10/M13 Q1008 R26/820345 TEMPO 2000 SHSN SCT015CB

TAF TAF UKKK
Valide du 15 à 12h jusqu'au 16 à 12h UTC


151102Z 1512/1612 30005G10MPS 6000 BKN010
TEMPO 1512/1518 1000 SHSN BKN004 SCT015CB
TEMPO 1518/1606 2000 -SN BR BKN005



MET'MAP, la Météo Aéronautique d'un coup d'oeil ! - Copyright ORBIFLY Décembre 2007 - Disclaimer

ORBIFLY MET'MAP TEAM :

Programmation & Développement : Alexandra Zaïnal
Sur une idée originale de : Baudouin d'Aumeries
Assistance à la programmation : Marc-Olivier Méhu
Soutien technique & logistique : Manuel Goepfert

Contact : metmap@orbifly.com




SOURCES & CREDITS :

   NOAA